This is the latest recevied weather packets stored in our database for station/object AK4NG. If no packets are shown the sender has not sent any weather packets the latest 10 day(s).
| Time | Temp. | Humidity | Pressure | Rain* | Wind** | Luminosity | Snow |
|---|---|---|---|---|---|---|---|
| 1777993599 | 22.22° C | 55% | 1017.1 hPa | 0 mm | - | 646 W/m² | - |
| 1777993297 | 22.22° C | 58% | 1017.1 hPa | 0 mm | - | 621 W/m² | - |
| 1777992992 | 21.67° C | 60% | 1017.1 hPa | 0 mm | - | 624 W/m² | - |
| 1777992691 | 21.11° C | 61% | 1017.2 hPa | 0 mm | - | 596 W/m² | - |
| 1777992388 | 21.11° C | 60% | 1017.1 hPa | 0 mm | - | 590 W/m² | - |
| 1777992085 | 21.11° C | 61% | 1017.2 hPa | 0 mm | - | 612 W/m² | - |
| 1777991783 | 20.56° C | 60% | 1017.1 hPa | 0 mm | - | 597 W/m² | - |
| 1777991480 | 20.56° C | 60% | 1017 hPa | 0 mm | - | 596 W/m² | - |
| 1777991177 | 21.11° C | 62% | 1017.1 hPa | 0 mm | - | 577 W/m² | - |
| 1777990874 | 20.56° C | 61% | 1017 hPa | 0 mm | - | 559 W/m² | - |
| 1777990572 | 20° C | 61% | 1017.1 hPa | 0 mm | - | 535 W/m² | - |
| 1777989965 | 20° C | 63% | 1016.9 hPa | 0 mm | - | 474 W/m² | - |
| 1777989662 | 19.44° C | 66% | 1017.3 hPa | 0 mm | - | 485 W/m² | - |
| 1777989358 | 19.44° C | 65% | 1017.1 hPa | 0 mm | - | 446 W/m² | - |
| 1777989055 | 18.89° C | 67% | 1017.2 hPa | 0 mm | - | 134 W/m² | - |
| 1777988750 | 18.89° C | 67% | 1017.2 hPa | 0 mm | - | 397 W/m² | - |
| 1777988448 | 18.89° C | 67% | 1017 hPa | 0 mm | - | 387 W/m² | - |
| 1777988144 | 18.89° C | 69% | 1017.1 hPa | 0 mm | - | 360 W/m² | - |
| 1777987840 | 18.33° C | 71% | 1017.1 hPa | 0 mm | - | 309 W/m² | - |
| 1777987537 | 17.78° C | 71% | 1017.1 hPa | 0 mm | - | 301 W/m² | - |
| 1777987235 | 17.78° C | 71% | 1016.8 hPa | 0 mm | - | 304 W/m² | - |
| 1777986931 | 17.22° C | 75% | 1016.9 hPa | 0 mm | - | 323 W/m² | - |
| 1777986630 | 16.67° C | 74% | 1016.7 hPa | 0 mm | - | 318 W/m² | - |
| 1777986327 | 16.11° C | 76% | 1016.8 hPa | 0 mm | - | 294 W/m² | - |
| 1777986026 | 15.56° C | 76% | 1016.6 hPa | 0 mm | - | 240 W/m² | - |
* Rain latest hour (hover to see other rain measurements)
** Current wind speed in m/s (hover to see current wind gust speed)